Time;durP1;ratioP1;P1;durP2;ratioP2;P2;SDS_P1;SDS_P2;PMS_P1;PMS_P2;Temp;Humidity;BMP_temperature;BMP_pressure;BME280_temperature;BME280_humidity;BME280_pressure;Samples;Min_cycle;Max_cycle;Signal;HPM_P1;HPM_P2
2022/03/12 00:00:48;;;;;;;9.75;7.40;;;;;;;5.16;32.29;95551.69;4961560;28;20031;-65
2022/03/12 00:03:17;;;;;;;12.32;7.97;;;;;;;5.09;32.28;95522.13;4954039;28;20472;-66
2022/03/12 00:05:54;;;;;;;12.40;8.00;;;;;;;5.04;32.50;95529.25;4952948;29;20046;-65
2022/03/12 00:08:28;;;;;;;9.95;7.85;;;;;;;5.15;32.40;95539.56;4943656;29;20381;-65
2022/03/12 00:10:53;;;;;;;10.57;7.65;;;;;;;5.15;32.30;95541.41;4934838;29;20034;-65
2022/03/12 00:13:21;;;;;;;10.30;7.88;;;;;;;5.14;32.33;95535.34;4931046;29;20031;-65
2022/03/12 00:15:50;;;;;;;9.88;7.35;;;;;;;5.15;32.48;95547.47;4937608;29;20031;-66
2022/03/12 00:18:18;;;;;;;12.18;7.63;;;;;;;4.79;32.22;95498.31;4953841;28;20038;-65
2022/03/12 00:20:48;;;;;;;10.85;7.53;;;;;;;4.80;32.69;95544.69;4953605;29;20023;-66
2022/03/12 00:23:17;;;;;;;8.77;7.38;;;;;;;4.71;32.79;95536.50;4952592;29;20027;-65
2022/03/12 00:25:43;;;;;;;12.30;7.40;;;;;;;4.80;33.03;95557.88;4953860;29;20066;-66
2022/03/12 00:28:09;;;;;;;8.98;7.28;;;;;;;4.63;33.19;95535.13;4953385;28;20053;-65
2022/03/12 00:30:35;;;;;;;12.60;8.00;;;;;;;4.78;32.73;95550.22;4952020;28;20035;-64
2022/03/12 00:33:01;;;;;;;12.15;7.32;;;;;;;4.84;32.50;95556.31;4952303;29;20035;-64
2022/03/12 00:35:26;;;;;;;15.38;7.47;;;;;;;4.73;32.56;95541.50;4953802;28;20027;-64
2022/03/12 00:37:51;;;;;;;17.35;7.70;;;;;;;4.85;32.40;95563.16;4953690;28;20027;-64
2022/03/12 00:40:20;;;;;;;9.65;7.28;;;;;;;4.38;32.94;95551.59;4953442;28;20568;-64
2022/03/12 00:42:45;;;;;;;11.75;6.88;;;;;;;4.41;33.22;95552.94;4953355;29;20035;-65
2022/03/12 00:45:11;;;;;;;13.35;7.22;;;;;;;4.73;32.65;95565.22;4953487;29;20020;-64
2022/03/12 00:47:37;;;;;;;8.57;6.90;;;;;;;4.75;32.95;95561.28;4952443;28;20042;-65
2022/03/12 00:50:04;;;;;;;10.48;7.78;;;;;;;4.55;32.97;95538.25;4953402;28;20035;-65
2022/03/12 00:52:29;;;;;;;10.52;7.38;;;;;;;4.67;33.09;95567.84;4953503;29;20110;-64
2022/03/12 00:54:55;;;;;;;10.15;6.85;;;;;;;4.57;32.94;95559.88;4953638;29;20513;-65
2022/03/12 00:57:20;;;;;;;9.65;7.10;;;;;;;4.68;33.04;95558.09;4952806;29;20054;-65
2022/03/12 00:59:46;;;;;;;11.57;7.55;;;;;;;4.65;32.96;95569.91;4952010;29;20532;-65
2022/03/12 01:02:14;;;;;;;12.35;7.43;;;;;;;4.70;32.70;95577.06;4952115;29;20037;-64
2022/03/12 01:04:40;;;;;;;10.07;6.90;;;;;;;4.65;32.69;95582.31;4936407;29;20027;-64
2022/03/12 01:07:06;;;;;;;13.75;8.02;;;;;;;4.52;32.95;95586.19;4952232;28;20539;-65
2022/03/12 01:09:31;;;;;;;9.55;7.43;;;;;;;4.37;33.18;95567.66;4953165;29;20031;-64
2022/03/12 01:11:57;;;;;;;9.57;6.95;;;;;;;4.53;33.04;95563.28;4935541;29;20398;-65
2022/03/12 01:14:22;;;;;;;10.85;7.32;;;;;;;4.58;33.19;95574.63;4952843;28;20031;-66
2022/03/12 01:16:47;;;;;;;10.10;7.30;;;;;;;4.65;32.91;95567.28;4917257;29;20030;-64
2022/03/12 01:19:15;;;;;;;9.40;7.43;;;;;;;4.60;32.77;95556.72;4916763;29;20040;-64
2022/03/12 01:21:41;;;;;;;9.63;7.20;;;;;;;4.70;33.03;95577.06;4934074;29;20055;-64
2022/03/12 01:24:06;;;;;;;9.57;7.80;;;;;;;4.62;32.97;95565.16;4934281;29;20071;-64
2022/03/12 01:26:35;;;;;;;10.73;7.68;;;;;;;4.56;32.74;95560.94;4934188;29;20027;-64
2022/03/12 01:29:01;;;;;;;9.65;7.25;;;;;;;4.54;32.85;95552.47;4949835;29;20023;-64
2022/03/12 01:31:26;;;;;;;7.97;7.18;;;;;;;4.64;32.93;95562.28;4935855;29;20468;-64
2022/03/12 01:33:52;;;;;;;10.68;7.50;;;;;;;4.67;32.89;95567.84;4951920;29;20119;-64
2022/03/12 01:36:17;;;;;;;13.23;7.07;;;;;;;4.73;33.03;95578.41;4953370;29;20469;-64
2022/03/12 01:38:51;;;;;;;9.15;7.22;;;;;;;4.69;33.11;95570.22;4935538;29;20464;-65
2022/03/12 01:41:32;;;;;;;10.27;7.32;;;;;;;4.64;33.08;95557.00;4953690;28;20431;-65
2022/03/12 01:43:59;;;;;;;13.15;8.05;;;;;;;4.69;32.83;95552.56;4940912;29;20428;-65
2022/03/12 01:46:45;;;;;;;9.45;7.47;;;;;;;4.63;32.79;95548.31;4956630;29;20109;-64
2022/03/12 01:49:12;;;;;;;11.90;7.13;;;;;;;4.68;33.16;95558.88;4956537;29;20110;-64
2022/03/12 01:51:40;;;;;;;12.27;7.38;;;;;;;4.50;33.07;95555.88;4956503;29;20388;-64
2022/03/12 01:54:05;;;;;;;8.82;7.35;;;;;;;4.42;33.08;95541.34;4956432;29;20041;-65
2022/03/12 01:56:34;;;;;;;10.60;7.20;;;;;;;4.37;33.24;95538.69;4956683;29;20027;-64
2022/03/12 01:59:01;;;;;;;9.35;7.35;;;;;;;4.53;33.38;95560.63;4954376;28;20031;-64
2022/03/12 02:01:31;;;;;;;9.05;7.40;;;;;;;4.51;33.49;95550.38;4956317;29;20086;-65
2022/03/12 02:03:59;;;;;;;12.07;7.30;;;;;;;4.40;33.48;95562.69;4956242;29;20031;-64
2022/03/12 02:06:24;;;;;;;9.77;8.07;;;;;;;4.39;33.82;95561.06;4956456;29;20028;-64
2022/03/12 02:08:58;;;;;;;12.88;8.35;;;;;;;4.44;33.58;95552.41;4956033;28;20030;-64
2022/03/12 02:11:28;;;;;;;13.82;8.02;;;;;;;4.48;33.85;95558.75;4956303;29;20370;-66
2022/03/12 02:14:02;;;;;;;10.45;7.38;;;;;;;4.51;33.42;95549.56;4955728;29;20039;-65
2022/03/12 02:16:29;;;;;;;10.40;7.22;;;;;;;4.46;33.40;95554.81;4956084;28;20348;-64
2022/03/12 02:18:54;;;;;;;9.45;7.82;;;;;;;4.48;33.46;95542.97;4955700;28;20047;-64
2022/03/12 02:21:34;;;;;;;10.93;7.82;;;;;;;4.53;33.70;95558.78;4955932;29;20027;-64
2022/03/12 02:24:01;;;;;;;10.68;7.63;;;;;;;4.41;33.47;95555.56;4938918;29;20070;-64
2022/03/12 02:26:26;;;;;;;14.45;8.05;;;;;;;4.47;33.73;95559.81;4938791;29;20473;-64
2022/03/12 02:28:51;;;;;;;8.48;7.15;;;;;;;4.10;34.37;95557.22;4953938;28;20103;-64
2022/03/12 02:31:17;;;;;;;13.15;7.78;;;;;;;4.29;34.07;95570.75;4955728;29;20050;-64
2022/03/12 02:33:44;;;;;;;11.38;7.80;;;;;;;4.20;33.87;95586.25;4955948;28;20031;-66
2022/03/12 02:36:11;;;;;;;11.90;7.13;;;;;;;4.27;34.02;95571.00;4955638;29;20032;-65
2022/03/12 02:38:36;;;;;;;11.27;7.60;;;;;;;4.40;33.64;95585.56;4955345;28;20031;-65
2022/03/12 02:41:10;;;;;;;10.18;7.47;;;;;;;4.33;33.64;95559.47;4955687;28;20042;-66
2022/03/12 02:43:39;;;;;;;11.63;7.40;;;;;;;4.46;33.85;95581.16;4937898;29;20035;-64
2022/03/12 02:46:04;;;;;;;9.80;7.75;;;;;;;4.41;33.60;95569.53;4941539;29;20024;-66
2022/03/12 02:48:30;;;;;;;9.85;7.90;;;;;;;4.39;33.58;95576.09;4935995;29;20039;-64
2022/03/12 02:50:55;;;;;;;12.48;8.25;;;;;;;4.46;33.23;95568.78;4935128;29;20032;-65
2022/03/12 02:53:21;;;;;;;12.15;7.30;;;;;;;4.48;33.27;95581.69;4935231;29;20035;-64
2022/03/12 02:55:47;;;;;;;10.45;7.40;;;;;;;4.40;33.60;95585.56;4936437;29;20389;-65
2022/03/12 02:58:16;;;;;;;10.55;8.05;;;;;;;4.28;33.47;95564.69;4924792;29;20038;-65
2022/03/12 03:00:41;;;;;;;11.52;7.38;;;;;;;4.28;33.75;95564.69;4954849;29;20387;-64
2022/03/12 03:03:07;;;;;;;13.55;7.90;;;;;;;4.39;33.80;95582.16;4955238;29;20090;-63
2022/03/12 03:05:48;;;;;;;8.98;6.75;;;;;;;4.38;33.62;95583.19;4937896;29;20023;-64
2022/03/12 03:08:22;;;;;;;12.27;6.97;;;;;;;4.39;33.96;95578.72;4955066;28;20027;-66
2022/03/12 03:10:51;;;;;;;8.88;7.32;;;;;;;4.32;33.89;95563.16;4953824;28;20027;-66
2022/03/12 03:13:21;;;;;;;8.38;6.80;;;;;;;4.53;33.99;95577.22;4954798;28;20030;-66
2022/03/12 03:15:53;;;;;;;10.48;7.57;;;;;;;4.57;33.98;95580.16;4954762;29;20058;-64
2022/03/12 03:18:22;;;;;;;12.10;8.48;;;;;;;4.56;34.03;95576.75;4954786;28;20031;-64
2022/03/12 03:20:48;;;;;;;13.32;7.75;;;;;;;4.60;33.71;95567.25;4954706;28;20111;-65
2022/03/12 03:23:14;;;;;;;8.05;7.10;;;;;;;4.54;33.63;95554.31;4954896;29;20102;-65
2022/03/12 03:25:40;;;;;;;11.93;7.38;;;;;;;4.61;34.06;95574.13;4953613;29;20035;-64
2022/03/12 03:28:07;;;;;;;10.65;7.88;;;;;;;4.56;34.10;95560.13;4953602;28;20047;-65
2022/03/12 03:30:39;;;;;;;16.45;7.28;;;;;;;4.57;33.79;95567.78;4953204;29;20080;-64
2022/03/12 03:33:09;;;;;;;11.95;7.60;;;;;;;4.74;33.83;95577.34;4954952;29;20468;-64
2022/03/12 03:35:38;;;;;;;13.27;8.05;;;;;;;4.58;33.79;95582.53;4954596;28;20050;-65
2022/03/12 03:38:04;;;;;;;8.82;7.35;;;;;;;4.51;33.84;95578.56;4954560;28;20024;-65
2022/03/12 03:40:29;;;;;;;11.98;8.38;;;;;;;4.51;34.18;95595.16;4954291;28;20416;-64
2022/03/12 03:42:55;;;;;;;15.15;8.20;;;;;;;4.45;34.29;95582.97;4954224;29;20034;-65
2022/03/12 03:45:22;;;;;;;12.00;8.40;;;;;;;4.51;33.98;95600.41;4946279;29;20031;-64
2022/03/12 03:47:48;;;;;;;10.93;7.90;;;;;;;4.42;34.26;95578.22;4937299;29;20038;-64
2022/03/12 03:50:14;;;;;;;11.10;7.80;;;;;;;4.41;34.32;95580.06;4954166;29;20023;-64
2022/03/12 03:52:39;;;;;;;12.98;8.20;;;;;;;4.49;34.45;95596.44;4937231;29;20035;-64
2022/03/12 03:55:06;;;;;;;8.23;7.10;;;;;;;4.24;34.73;95545.19;4954305;29;20464;-64
2022/03/12 03:57:31;;;;;;;16.92;9.15;;;;;;;4.57;34.12;95586.22;4936947;29;20035;-65
2022/03/12 03:59:56;;;;;;;10.10;7.47;;;;;;;4.63;34.22;95597.59;4936566;29;20035;-65
2022/03/12 04:02:22;;;;;;;8.93;7.93;;;;;;;4.63;34.35;95587.84;4954171;29;20030;-65
2022/03/12 04:04:48;;;;;;;12.50;7.90;;;;;;;4.54;34.39;95573.53;4953708;28;20114;-65
2022/03/12 04:07:14;;;;;;;11.93;8.02;;;;;;;4.65;34.26;95590.19;4936971;29;20361;-65
2022/03/12 04:09:40;;;;;;;12.80;8.40;;;;;;;4.61;34.19;95571.50;4936734;29;20041;-66
2022/03/12 04:12:06;;;;;;;10.30;8.40;;;;;;;4.67;34.17;95574.94;4954058;29;20039;-65
2022/03/12 04:14:32;;;;;;;12.30;7.63;;;;;;;4.70;33.88;95577.84;4953768;29;20035;-65
2022/03/12 04:16:58;;;;;;;11.20;8.30;;;;;;;4.63;34.22;95571.22;4952618;28;20496;-65
2022/03/12 04:19:29;;;;;;;11.02;8.05;;;;;;;4.67;34.45;95575.75;4953783;29;20031;-64
2022/03/12 04:21:57;;;;;;;10.82;7.57;;;;;;;4.64;34.14;95568.34;4936664;29;20110;-64
2022/03/12 04:24:25;;;;;;;11.18;7.93;;;;;;;4.70;34.25;95569.94;4953968;29;20033;-65
2022/03/12 04:26:52;;;;;;;11.35;8.85;;;;;;;4.61;34.31;95558.31;4953876;28;20504;-65
2022/03/12 04:29:18;;;;;;;13.43;7.30;;;;;;;4.77;34.15;95576.84;4953333;29;20035;-64
2022/03/12 04:31:47;;;;;;;11.23;7.60;;;;;;;4.60;34.39;95567.25;4953293;29;20032;-65
2022/03/12 04:34:14;;;;;;;9.85;7.80;;;;;;;4.64;34.14;95578.09;4937032;29;20465;-65
2022/03/12 04:36:42;;;;;;;10.65;7.90;;;;;;;4.60;34.20;95577.78;4953764;28;20437;-64
2022/03/12 04:39:10;;;;;;;8.98;7.45;;;;;;;4.61;34.58;95584.66;4953335;29;20427;-64
2022/03/12 04:41:36;;;;;;;12.93;7.68;;;;;;;4.61;34.55;95589.16;4953746;29;20023;-64
2022/03/12 04:44:06;;;;;;;10.13;8.48;;;;;;;4.58;34.29;95574.63;4953488;29;20027;-65
2022/03/12 04:46:32;;;;;;;9.57;7.80;;;;;;;4.60;34.43;95583.06;4953408;28;20020;-65
2022/03/12 04:48:58;;;;;;;10.13;7.93;;;;;;;4.61;34.10;95589.94;4953636;29;20031;-65
2022/03/12 04:51:23;;;;;;;11.27;8.15;;;;;;;4.46;34.18;95562.72;4953572;29;20114;-65
2022/03/12 04:53:48;;;;;;;11.52;8.02;;;;;;;4.57;34.50;95583.59;4953687;29;20028;-64
2022/03/12 04:56:14;;;;;;;10.77;8.43;;;;;;;4.43;34.53;95564.78;4936507;28;20482;-64
2022/03/12 04:58:39;;;;;;;11.82;7.43;;;;;;;4.43;34.77;95566.63;4952960;29;20035;-64
2022/03/12 05:01:07;;;;;;;10.40;8.00;;;;;;;4.52;34.82;95594.09;4947097;29;20027;-64
2022/03/12 05:03:32;;;;;;;11.60;8.55;;;;;;;4.56;34.33;95602.28;4934715;29;20078;-64
2022/03/12 05:05:59;;;;;;;8.48;7.43;;;;;;;4.45;34.80;95590.88;4933305;29;20031;-64
2022/03/12 05:08:28;;;;;;;10.90;8.15;;;;;;;4.47;34.73;95603.81;4934308;29;20027;-64
2022/03/12 05:10:55;;;;;;;10.68;8.18;;;;;;;4.40;34.66;95588.19;4934390;29;20027;-64
2022/03/12 05:13:23;;;;;;;9.90;8.00;;;;;;;4.32;34.97;95581.59;4936473;29;20118;-66
2022/03/12 05:15:53;;;;;;;11.52;8.35;;;;;;;4.40;34.87;95604.00;4936137;28;20023;-65
2022/03/12 05:18:21;;;;;;;12.38;8.45;;;;;;;4.47;35.09;95611.72;4956115;28;20031;-64
2022/03/12 05:20:47;;;;;;;15.48;8.45;;;;;;;4.36;34.74;95597.69;4940108;29;20476;-65
2022/03/12 05:23:14;;;;;;;10.38;8.40;;;;;;;4.41;35.26;95621.41;4957147;29;20019;-64
2022/03/12 05:25:42;;;;;;;13.60;8.05;;;;;;;4.35;35.24;95622.41;4955917;29;20113;-64
2022/03/12 05:28:09;;;;;;;15.50;8.50;;;;;;;4.38;34.90;95630.59;4939796;29;20035;-65
2022/03/12 05:30:35;;;;;;;14.05;8.27;;;;;;;4.32;34.86;95615.03;4939344;29;20027;-65
2022/03/12 05:33:00;;;;;;;11.93;8.52;;;;;;;4.32;35.02;95625.56;4956981;29;20436;-65
2022/03/12 05:35:26;;;;;;;12.40;8.52;;;;;;;4.35;35.26;95627.66;4957262;29;20051;-64
2022/03/12 05:37:53;;;;;;;12.15;8.35;;;;;;;4.31;35.21;95624.78;4956696;28;20027;-65
2022/03/12 05:40:21;;;;;;;13.05;8.38;;;;;;;4.31;35.30;95634.50;4956679;29;20058;-65
2022/03/12 05:42:47;;;;;;;14.15;8.63;;;;;;;4.42;35.09;95636.97;4956874;29;20078;-65
2022/03/12 05:45:14;;;;;;;13.73;8.82;;;;;;;4.43;35.33;95637.75;4939059;29;20035;-65
2022/03/12 05:47:41;;;;;;;14.85;8.70;;;;;;;4.44;35.36;95631.44;4938009;29;20126;-63
2022/03/12 05:50:09;;;;;;;10.85;8.60;;;;;;;4.51;35.09;95645.19;4937476;29;20083;-64
2022/03/12 05:52:38;;;;;;;10.35;8.07;;;;;;;4.53;35.30;95639.66;4937424;29;20036;-64
2022/03/12 05:55:05;;;;;;;12.93;8.23;;;;;;;4.59;35.16;95644.72;4937398;29;20437;-65
2022/03/12 05:57:32;;;;;;;18.13;8.85;;;;;;;4.63;34.97;95647.66;4937204;29;20082;-65
2022/03/12 06:00:01;;;;;;;12.05;8.65;;;;;;;4.61;35.16;95642.63;4932883;29;20424;-65
2022/03/12 06:02:26;;;;;;;13.00;8.73;;;;;;;4.61;35.06;95626.03;4956215;29;20031;-66
2022/03/12 06:04:52;;;;;;;13.68;9.00;;;;;;;4.70;35.15;95641.09;4952889;23;20475;-63
2022/03/12 06:07:24;;;;;;;10.70;8.52;;;;;;;4.63;34.85;95613.38;4924347;29;20031;-64
2022/03/12 06:09:49;;;;;;;14.98;9.25;;;;;;;4.88;34.97;95650.44;4917738;29;20051;-64
2022/03/12 06:12:18;;;;;;;15.18;8.38;;;;;;;4.74;35.06;95627.41;4918011;29;20032;-64
2022/03/12 06:14:50;;;;;;;12.68;9.40;;;;;;;4.61;34.85;95605.75;4928612;29;20538;-64
2022/03/12 06:17:15;;;;;;;;;;;;;;;5.09;34.88;95655.81;4937138;29;20103;-63
2022/03/12 06:19:41;;;;;;;14.63;8.95;;;;;;;5.00;34.90;95644.16;4936761;29;20009;-63
2022/03/12 06:22:06;;;;;;;11.77;7.93;;;;;;;4.73;34.58;95579.19;4937047;29;20039;-63
2022/03/12 06:24:32;;;;;;;12.38;9.07;;;;;;;4.76;34.91;95577.88;4936873;29;20056;-63
2022/03/12 06:26:57;;;;;;;11.40;8.38;;;;;;;4.85;34.83;95590.31;4935416;29;20024;-63
2022/03/12 06:29:26;;;;;;;15.77;8.90;;;;;;;5.06;34.41;95628.09;4919126;29;20459;-64
2022/03/12 06:31:52;;;;;;;10.60;8.40;;;;;;;5.31;34.21;95658.28;4919493;29;20024;-64
2022/03/12 06:34:18;;;;;;;11.80;8.63;;;;;;;5.41;33.93;95645.13;4936637;29;20032;-65
2022/03/12 06:36:44;;;;;;;16.08;8.18;;;;;;;5.74;34.00;95686.16;4936668;29;20036;-63
2022/03/12 06:39:10;;;;;;;13.98;8.80;;;;;;;5.82;33.72;95677.72;4936299;29;20361;-63
2022/03/12 06:41:38;;;;;;;13.85;9.80;;;;;;;5.56;33.60;95620.66;4935363;29;20083;-62
2022/03/12 06:44:06;;;;;;;18.73;10.10;;;;;;;5.96;33.70;95681.50;4936225;29;20500;-64
2022/03/12 06:46:33;;;;;;;13.63;9.00;;;;;;;5.55;33.60;95613.78;4937978;29;20540;-63
2022/03/12 06:48:58;;;;;;;13.65;9.27;;;;;;;6.03;33.70;95667.25;4938034;29;20023;-63
2022/03/12 06:51:24;;;;;;;11.20;8.75;;;;;;;6.18;33.40;95688.41;4955388;28;20499;-63
2022/03/12 06:53:52;;;;;;;11.90;9.35;;;;;;;5.42;33.21;95557.81;4955696;29;20536;-64
2022/03/12 06:56:18;;;;;;;13.98;9.32;;;;;;;5.68;33.26;95590.34;4955404;28;20031;-63
2022/03/12 06:58:43;;;;;;;12.27;8.93;;;;;;;6.04;33.54;95647.69;4953222;29;20027;-62
2022/03/12 07:01:09;;;;;;;11.43;8.90;;;;;;;6.12;33.27;95645.34;4942657;29;20037;-63
2022/03/12 07:03:34;;;;;;;11.52;8.98;;;;;;;6.46;33.14;95687.13;4934724;29;20055;-62
2022/03/12 07:06:26;;;;;;;14.40;8.98;;;;;;;6.56;32.96;95695.03;4936130;29;20413;-64
2022/03/12 07:08:52;;;;;;;13.88;9.65;;;;;;;6.26;33.32;95664.09;4933877;29;20031;-63
2022/03/12 07:11:20;;;;;;;13.32;10.02;;;;;;;6.38;33.33;95685.78;4936193;29;20548;-63
2022/03/12 07:13:46;;;;;;;13.80;10.07;;;;;;;6.67;33.14;95698.47;4950401;29;20034;-63
2022/03/12 07:16:12;;;;;;;15.68;10.30;;;;;;;6.70;33.13;95697.94;4935679;29;20023;-64
2022/03/12 07:18:38;;;;;;;12.00;9.38;;;;;;;6.78;33.27;95690.25;4935423;29;20035;-64
2022/03/12 07:21:05;;;;;;;15.82;9.80;;;;;;;6.38;33.02;95632.13;4935833;29;20031;-64
2022/03/12 07:23:31;;;;;;;16.70;10.50;;;;;;;6.82;33.54;95706.41;4935945;29;20055;-64
2022/03/12 07:25:56;;;;;;;15.40;10.38;;;;;;;6.61;33.08;95663.31;4934564;29;20449;-63
2022/03/12 07:28:22;;;;;;;14.70;10.85;;;;;;;5.21;33.43;95469.16;4935295;29;20686;-63
2022/03/12 07:30:48;;;;;;;16.35;10.95;;;;;;;6.79;33.47;95685.75;4917911;29;20028;-64
2022/03/12 07:33:14;;;;;;;12.07;9.85;;;;;;;6.64;33.39;95659.34;4935505;29;20032;-63
2022/03/12 07:35:40;;;;;;;17.02;10.98;;;;;;;6.21;33.13;95572.44;4935837;29;20430;-63
2022/03/12 07:38:06;;;;;;;13.70;9.90;;;;;;;7.07;32.74;95689.72;4935318;29;20031;-64
2022/03/12 07:40:33;;;;;;;15.05;10.55;;;;;;;7.07;32.63;95676.47;4933537;29;20035;-62
2022/03/12 07:42:59;;;;;;;15.18;11.93;;;;;;;6.87;33.27;95705.59;4935503;29;20106;-62
2022/03/12 07:45:24;;;;;;;20.63;10.75;;;;;;;6.80;33.35;95703.22;4934911;29;20171;-65
2022/03/12 07:47:52;;;;;;;15.52;11.57;;;;;;;6.60;34.09;95693.44;4935285;29;20032;-64
2022/03/12 07:50:18;;;;;;;15.40;11.10;;;;;;;6.76;33.17;95673.88;4935031;29;20099;-65
2022/03/12 07:52:44;;;;;;;17.75;11.13;;;;;;;6.83;33.55;95696.63;4935304;29;20028;-63
2022/03/12 07:55:11;;;;;;;14.52;11.52;;;;;;;7.30;33.09;95712.91;4935371;29;20027;-62
2022/03/12 07:57:37;;;;;;;18.08;12.20;;;;;;;7.34;33.10;95680.63;4934882;29;20404;-65
2022/03/12 08:00:09;;;;;;;15.23;10.13;;;;;;;7.70;32.95;95700.63;4934528;29;20024;-64
2022/03/12 08:02:35;;;;;;;15.55;11.65;;;;;;;6.72;33.96;95682.63;4952757;28;20027;-63
2022/03/12 08:05:01;;;;;;;14.95;11.98;;;;;;;7.12;33.59;95657.94;4953795;29;20118;-63
2022/03/12 08:07:28;;;;;;;14.68;11.50;;;;;;;7.37;32.85;95654.44;4954008;28;20086;-66
2022/03/12 08:09:56;;;;;;;15.23;11.15;;;;;;;7.48;32.97;95686.94;4936831;29;20038;-61
2022/03/12 08:12:32;;;;;;;20.58;12.32;;;;;;;7.85;32.65;95701.63;4953207;29;20492;-62
2022/03/12 08:14:59;;;;;;;15.80;12.23;;;;;;;7.73;32.92;95691.34;4945268;28;20035;-61
2022/03/12 08:17:25;;;;;;;18.30;12.15;;;;;;;7.52;33.51;95702.03;4935244;29;20472;-62
2022/03/12 08:19:51;;;;;;;20.75;12.00;;;;;;;7.01;34.25;95688.09;4953881;29;20361;-61
2022/03/12 08:22:18;;;;;;;18.17;12.15;;;;;;;7.97;33.21;95680.88;4954013;28;20031;-63
2022/03/12 08:24:43;;;;;;;22.17;12.05;;;;;;;8.43;32.93;95696.53;4953781;28;20031;-62
2022/03/12 08:27:09;;;;;;;17.15;12.35;;;;;;;8.66;32.27;95693.19;4953738;28;20027;-62
2022/03/12 08:29:35;;;;;;;17.80;13.02;;;;;;;8.81;32.44;95682.44;4948783;29;20035;-62
2022/03/12 08:32:00;;;;;;;16.50;12.98;;;;;;;8.91;31.89;95678.91;4934397;29;20401;-60
2022/03/12 08:34:26;;;;;;;20.65;12.70;;;;;;;9.06;31.51;95699.19;4934442;29;20218;-60
2022/03/12 08:36:57;;;;;;;17.80;12.50;;;;;;;9.15;31.49;95697.50;4934568;29;20024;-66
2022/03/12 08:39:23;;;;;;;17.80;13.77;;;;;;;9.33;31.66;95686.16;4934192;29;20032;-65
2022/03/12 08:41:48;;;;;;;15.13;12.65;;;;;;;9.47;31.53;95677.50;4934244;29;20055;-64
2022/03/12 08:44:14;;;;;;;20.58;12.38;;;;;;;9.59;31.35;95677.91;4934286;29;20083;-65
2022/03/12 08:46:42;;;;;;;20.92;13.55;;;;;;;9.66;31.02;95658.97;4928102;29;20027;-63
2022/03/12 08:49:08;;;;;;;15.50;13.30;;;;;;;9.28;31.02;95662.34;4953460;29;20052;-64
2022/03/12 08:51:33;;;;;;;15.77;13.20;;;;;;;9.32;31.17;95671.31;4956423;28;20586;-62
2022/03/12 08:53:59;;;;;;;17.02;13.57;;;;;;;9.00;32.04;95702.94;4957614;29;20070;-60
2022/03/12 08:56:25;;;;;;;18.50;13.25;;;;;;;9.03;31.73;95670.56;4940542;29;20055;-62
2022/03/12 08:58:50;;;;;;;17.67;14.07;;;;;;;9.15;32.02;95680.78;4957273;29;20031;-62
2022/03/12 09:01:16;;;;;;;23.20;14.07;;;;;;;9.10;31.88;95693.03;4947438;28;20031;-60
2022/03/12 09:03:42;;;;;;;15.85;13.20;;;;;;;8.89;31.71;95677.59;4957294;29;20480;-63
2022/03/12 09:06:07;;;;;;;24.70;13.98;;;;;;;9.67;31.19;95685.25;4957421;28;20034;-59
2022/03/12 09:08:34;;;;;;;19.55;14.70;;;;;;;9.26;31.85;95685.69;4956058;29;20027;-60
2022/03/12 09:11:00;;;;;;;18.38;14.50;;;;;;;10.14;30.70;95692.34;4957376;29;20476;-59
2022/03/12 09:13:26;;;;;;;21.63;15.00;;;;;;;9.73;30.19;95636.31;4957252;29;20034;-63
2022/03/12 09:15:51;;;;;;;16.58;13.40;;;;;;;10.51;29.94;95684.69;4948136;29;20031;-60
2022/03/12 09:18:17;;;;;;;19.65;14.02;;;;;;;10.77;29.72;95688.50;4941426;29;20497;-63
2022/03/12 09:20:47;;;;;;;20.85;14.13;;;;;;;10.80;29.70;95677.28;4937732;29;20034;-62
2022/03/12 09:23:25;;;;;;;20.30;14.65;;;;;;;10.93;29.33;95686.38;4937971;29;20019;-59
2022/03/12 09:25:53;;;;;;;17.80;13.95;;;;;;;11.10;28.83;95680.50;4938104;29;20510;-61
2022/03/12 09:28:20;;;;;;;19.73;14.10;;;;;;;11.28;28.54;95678.84;4937968;29;20106;-60
2022/03/12 09:30:55;;;;;;;17.98;14.45;;;;;;;11.19;28.71;95682.19;4936679;29;20031;-65
2022/03/12 09:33:22;;;;;;;21.95;14.00;;;;;;;11.32;28.53;95662.00;4937663;29;20066;-64
2022/03/12 09:35:53;;;;;;;21.48;14.43;;;;;;;11.63;28.19;95680.06;4937606;29;20350;-63
2022/03/12 09:38:19;;;;;;;18.30;13.63;;;;;;;11.70;28.49;95673.22;4937648;29;20075;-64
2022/03/12 09:40:45;;;;;;;20.95;14.93;;;;;;;11.19;28.02;95684.84;4937406;29;20027;-61
2022/03/12 09:43:11;;;;;;;17.65;13.43;;;;;;;11.17;28.60;95688.91;4937623;29;20549;-63
2022/03/12 09:45:37;;;;;;;20.10;14.43;;;;;;;11.32;28.37;95677.97;4936988;29;20039;-59
2022/03/12 09:48:04;;;;;;;20.77;15.07;;;;;;;11.69;28.43;95682.31;4937289;29;20374;-61
2022/03/12 09:50:31;;;;;;;16.80;14.18;;;;;;;11.95;27.99;95679.94;4937242;29;20300;-62
2022/03/12 09:52:56;;;;;;;20.33;14.52;;;;;;;11.73;27.68;95628.44;4937522;29;20108;-61
2022/03/12 09:55:22;;;;;;;19.73;14.50;;;;;;;12.15;27.43;95664.59;4937262;29;20123;-61
2022/03/12 09:57:48;;;;;;;18.95;14.05;;;;;;;12.23;27.35;95662.00;4937332;29;20516;-62
2022/03/12 10:00:16;;;;;;;17.40;14.50;;;;;;;12.43;27.03;95667.94;4936575;29;20042;-61
2022/03/12 10:02:42;;;;;;;16.60;14.27;;;;;;;12.52;27.15;95665.34;4934697;29;20028;-60
2022/03/12 10:05:11;;;;;;;19.48;14.65;;;;;;;11.48;27.33;95661.69;4936682;29;20038;-62
2022/03/12 10:07:37;;;;;;;19.40;15.10;;;;;;;11.82;26.87;95598.13;4936988;29;20031;-62
2022/03/12 10:10:03;;;;;;;18.90;15.77;;;;;;;11.46;27.75;95667.31;4936853;29;20028;-63
2022/03/12 10:12:29;;;;;;;24.30;14.90;;;;;;;11.81;27.62;95673.00;4937004;29;20032;-62
2022/03/12 10:14:54;;;;;;;18.73;13.98;;;;;;;11.57;27.40;95662.59;4935390;29;20568;-62
2022/03/12 10:17:20;;;;;;;18.23;14.77;;;;;;;12.36;26.72;95665.72;4936656;29;20051;-62
2022/03/12 10:19:46;;;;;;;28.55;15.55;;;;;;;12.58;26.84;95659.59;4936476;29;20031;-62
2022/03/12 10:22:12;;;;;;;19.48;14.75;;;;;;;12.19;26.49;95620.25;4936809;29;20148;-62
2022/03/12 10:24:37;;;;;;;17.95;15.10;;;;;;;12.67;26.46;95628.41;4937017;29;20024;-62
2022/03/12 10:27:07;;;;;;;24.60;15.75;;;;;;;12.48;26.37;95625.16;4936670;29;20473;-62
2022/03/12 10:29:34;;;;;;;22.38;16.10;;;;;;;12.98;26.27;95630.31;4936856;29;20035;-63
2022/03/12 10:32:21;;;;;;;23.65;16.10;;;;;;;12.52;26.54;95644.00;4936339;29;20024;-62
2022/03/12 10:34:52;;;;;;;24.42;14.60;;;;;;;10.77;27.74;95591.94;4936666;29;20043;-63
2022/03/12 10:37:21;;;;;;;23.85;15.68;;;;;;;12.46;26.31;95620.13;4936654;29;20114;-63
2022/03/12 10:39:48;;;;;;;17.88;15.50;;;;;;;12.94;26.21;95651.50;4934675;29;20031;-62
2022/03/12 10:42:13;;;;;;;21.98;15.35;;;;;;;12.93;25.81;95655.25;4936434;29;20082;-64
2022/03/12 10:44:40;;;;;;;17.20;14.60;;;;;;;12.38;25.52;95564.03;4936174;29;20027;-64
2022/03/12 10:47:23;;;;;;;18.08;13.63;;;;;;;12.63;26.18;95648.00;4931402;29;20171;-62
2022/03/12 10:49:58;;;;;;;22.73;14.35;;;;;;;12.69;26.18;95633.44;4936082;29;20548;-61
2022/03/12 10:52:30;;;;;;;21.25;15.18;;;;;;;11.95;26.73;95615.97;4936294;29;20094;-60
2022/03/12 10:54:56;;;;;;;18.73;14.90;;;;;;;11.90;26.71;95633.94;4936186;29;20031;-64
2022/03/12 10:57:22;;;;;;;23.30;14.82;;;;;;;12.60;25.91;95616.59;4936284;29;20028;-65
2022/03/12 10:59:55;;;;;;;22.00;15.65;;;;;;;12.66;26.18;95655.41;4934460;29;20090;-64
2022/03/12 11:02:21;;;;;;;22.05;14.82;;;;;;;12.59;26.50;95649.69;4935686;29;20103;-63
2022/03/12 11:04:47;;;;;;;15.93;14.23;;;;;;;12.95;25.80;95626.38;4935967;29;20035;-61
2022/03/12 11:07:30;;;;;;;23.20;14.85;;;;;;;12.98;25.82;95639.13;4936319;29;20574;-62
2022/03/12 11:09:56;;;;;;;24.40;14.30;;;;;;;12.73;26.22;95650.44;4935825;29;20028;-61
2022/03/12 11:12:37;;;;;;;18.63;13.80;;;;;;;12.51;26.36;95647.78;4918859;29;20024;-63
2022/03/12 11:15:10;;;;;;;18.77;13.93;;;;;;;13.14;26.25;95647.50;4934746;29;20027;-62
2022/03/12 11:17:53;;;;;;;18.48;13.68;;;;;;;13.12;25.89;95639.03;4937563;29;20051;-61
2022/03/12 11:20:25;;;;;;;25.23;14.45;;;;;;;13.37;25.63;95644.81;4954753;28;20027;-61
2022/03/12 11:23:12;;;;;;;17.15;14.40;;;;;;;12.83;25.91;95606.69;4955101;29;20026;-61
2022/03/12 11:26:04;;;;;;;20.33;13.52;;;;;;;13.00;26.21;95647.63;4937899;29;20523;-61
2022/03/12 11:28:30;;;;;;;19.38;14.30;;;;;;;13.19;26.13;95641.25;4946614;28;20058;-60
2022/03/12 11:30:56;;;;;;;20.23;14.00;;;;;;;13.59;25.65;95627.91;4945484;29;20031;-62